Time;durP1;ratioP1;P1;durP2;ratioP2;P2;SDS_P1;SDS_P2;PMS_P1;PMS_P2;Temp;Humidity;BMP_temperature;BMP_pressure;BME280_temperature;BME280_humidity;BME280_pressure;Samples;Min_cycle;Max_cycle;Signal;HPM_P1;HPM_P2
2022/05/07 05:47:16;;;;;;;17.73;9.13;;;13.50;99.90;;;;;;6251044;22;20075;-92
2022/05/07 08:23:06;;;;;;;31.45;14.68;;;15.10;99.90;;;;;;6277443;22;20073;-92
2022/05/07 08:25:35;;;;;;;31.95;16.17;;;15.10;99.90;;;;;;6250119;22;20394;-89
2022/05/07 08:28:51;;;;;;;27.15;13.93;;;15.10;99.90;;;;;;6251310;22;20082;-92
2022/05/07 08:31:24;;;;;;;24.00;12.98;;;15.10;99.90;;;;;;6277810;22;20016;-92
2022/05/07 08:39:37;;;;;;;29.08;15.25;;;14.80;99.90;;;;;;6245755;22;20043;-87
2022/05/07 08:42:04;;;;;;;29.73;15.15;;;14.70;99.90;;;;;;6245596;23;20054;-88
2022/05/07 08:44:40;;;;;;;31.90;14.75;;;14.70;99.90;;;;;;6220274;23;20436;-90
2022/05/07 08:47:07;;;;;;;36.17;15.90;;;14.70;99.90;;;;;;6219520;23;20020;-85
2022/05/07 08:49:36;;;;;;;32.78;15.98;;;14.90;99.90;;;;;;6194945;23;20020;-87
2022/05/07 08:52:06;;;;;;;27.17;13.63;;;14.80;99.90;;;;;;6220040;23;20171;-89
2022/05/07 08:54:34;;;;;;;24.33;13.10;;;14.70;99.90;;;;;;6219363;23;20041;-87
2022/05/07 08:57:02;;;;;;;22.27;13.18;;;14.90;99.90;;;;;;6245814;23;20095;-86
2022/05/07 08:59:29;;;;;;;28.48;13.63;;;14.90;99.90;;;;;;6218626;23;20020;-89
2022/05/07 09:02:09;;;;;;;27.08;13.35;;;14.90;99.90;;;;;;6219021;23;20391;-91
2022/05/07 09:04:37;;;;;;;23.20;11.88;;;15.00;99.90;;;;;;6245579;23;20012;-87
2022/05/07 09:07:14;;;;;;;20.17;10.57;;;15.10;99.90;;;;;;6219653;23;20110;-84
2022/05/07 09:09:51;;;;;;;29.63;14.15;;;15.10;99.90;;;;;;6219174;23;20051;-85
2022/05/07 09:43:49;;;;;;;35.20;17.08;;;15.50;99.90;;;;;;6277328;22;20011;-90
2022/05/07 09:46:44;;;;;;;34.17;16.05;;;15.50;99.90;;;;;;6097635;23;20053;-90
2022/05/07 09:57:30;;;;;;;30.17;15.45;;;15.60;99.90;;;;;;6245464;23;20470;-90
2022/05/07 09:58:34;;;;;;;31.00;15.93;;;15.50;99.90;;;;;;6251622;22;20020;-90
2022/05/07 10:01:46;;;;;;;37.35;16.95;;;15.50;99.90;;;;;;6250909;22;20394;-90
2022/05/07 10:09:13;;;;;;;34.70;17.40;;;15.60;99.90;;;;;;6224810;23;20039;-93
2022/05/07 10:11:44;;;;;;;27.83;15.35;;;15.60;99.90;;;;;;6222625;23;20020;-92
2022/05/07 10:15:25;;;;;;;28.10;14.25;;;15.80;99.90;;;;;;6233256;23;20034;-93
2022/05/07 10:21:51;;;;;;;33.63;16.23;;;15.90;99.90;;;;;;6221558;23;20439;-94
2022/05/07 12:14:54;;;;;;;30.08;13.43;;;17.80;99.90;;;;;;6232464;23;20328;-83
2022/05/07 12:20:07;;;;;;;24.13;11.30;;;18.00;99.90;;;;;;6245733;23;20016;-83
2022/05/07 12:30:58;;;;;;;18.88;9.02;;;18.60;99.90;;;;;;6218376;23;20018;-87
2022/05/07 12:33:27;;;;;;;23.20;10.82;;;18.90;99.90;;;;;;6245011;23;20118;-87
2022/05/07 12:35:57;;;;;;;22.00;11.07;;;18.70;99.90;;;;;;6243230;22;20024;-87
2022/05/07 12:38:24;;;;;;;24.15;10.68;;;18.70;99.90;;;;;;6193544;23;20043;-87
2022/05/07 12:40:54;;;;;;;21.40;12.25;;;18.70;99.90;;;;;;6245072;23;20027;-86
2022/05/07 12:43:22;;;;;;;23.70;12.77;;;18.50;99.90;;;;;;6217931;23;20074;-86
2022/05/07 12:45:53;;;;;;;20.73;9.73;;;18.00;99.90;;;;;;6245716;22;20016;-87
2022/05/07 12:48:28;;;;;;;24.45;12.10;;;18.20;99.90;;;;;;6194359;23;20018;-87
2022/05/07 12:50:59;;;;;;;29.65;14.75;;;18.30;99.90;;;;;;6245812;23;20020;-86
2022/05/07 12:53:37;;;;;;;27.25;11.65;;;17.90;99.90;;;;;;6245272;23;20023;-87
2022/05/07 12:56:31;;;;;;;23.58;11.52;;;18.40;99.90;;;;;;6195777;23;20015;-85
2022/05/07 12:59:08;;;;;;;26.27;12.63;;;19.10;99.90;;;;;;6198493;23;20348;-86
2022/05/07 13:01:39;;;;;;;20.67;10.57;;;19.20;99.90;;;;;;6218535;23;20044;-87
2022/05/07 13:04:12;;;;;;;13.68;6.95;;;19.80;99.90;;;;;;6218243;23;20012;-87
2022/05/07 13:06:43;;;;;;;26.23;11.90;;;19.70;99.90;;;;;;6244815;23;20009;-87
2022/05/07 13:09:14;;;;;;;18.70;9.52;;;19.70;99.90;;;;;;6219386;23;20062;-87
2022/05/07 13:11:43;;;;;;;17.52;7.68;;;20.00;97.80;;;;;;6218743;23;20020;-87
2022/05/07 13:14:19;;;;;;;20.23;10.38;;;19.90;96.50;;;;;;6244626;22;20020;-88
2022/05/07 13:16:49;;;;;;;18.17;9.85;;;19.90;80.60;;;;;;6219555;23;20761;-87
2022/05/07 13:19:22;;;;;;;16.55;9.57;;;19.70;61.30;;;;;;6218738;23;20043;-87
2022/05/07 13:22:38;;;;;;;;;;;;;;;;;;;;;
2022/05/07 13:29:05;;;;;;;12.38;7.43;;;19.90;26.40;;;;;;6215537;23;20019;-87
2022/05/07 13:31:55;;;;;;;9.23;5.68;;;19.00;17.00;;;;;;6199169;23;20387;-88
2022/05/07 13:34:31;;;;;;;10.93;7.05;;;19.50;1.00;;;;;;6220556;23;20020;-87
2022/05/07 13:37:12;;;;;;;12.68;7.55;;;18.90;1.00;;;;;;6223678;23;20102;-86
2022/05/07 13:39:42;;;;;;;11.75;6.28;;;18.40;1.00;;;;;;6222878;23;20055;-86
2022/05/07 13:42:11;;;;;;;6.50;4.32;;;19.00;8.50;;;;;;6248111;23;20024;-85
2022/05/07 13:44:41;;;;;;;17.42;8.63;;;20.10;12.80;;;;;;6246635;22;20016;-87
2022/05/07 13:47:12;;;;;;;11.85;6.78;;;19.30;1.00;;;;;;6220271;23;20016;-88
2022/05/07 16:31:56;;;;;;;4.03;2.72;;;17.90;1.00;;;;;;6101162;23;20071;-93
2022/05/07 16:34:32;;;;;;;6.75;4.13;;;18.30;1.00;;;;;;6104054;23;20014;-91
2022/05/07 16:37:34;;;;;;;5.07;3.08;;;18.10;1.00;;;;;;6191653;23;20021;-91
2022/05/07 18:46:20;;;;;;;3.58;2.70;;;16.30;1.00;;;;;;6240532;22;20038;-94
2022/05/07 18:49:14;;;;;;;6.95;3.45;;;16.30;1.00;;;;;;6241160;22;20026;-91
2022/05/07 18:52:12;;;;;;;7.28;3.00;;;16.30;1.00;;;;;;6278414;22;20166;-91
2022/05/07 18:58:47;;;;;;;7.55;3.22;;;16.20;1.00;;;;;;6167750;23;20454;-90
2022/05/07 19:02:17;;;;;;;8.85;3.15;;;15.50;1.00;;;;;;6196754;23;20047;-92
2022/05/07 19:05:00;;;;;;;5.97;3.13;;;15.20;1.00;;;;;;6199660;23;20023;-92
2022/05/07 19:12:20;;;;;;;8.85;2.83;;;15.50;1.00;;;;;;6248024;23;20079;-91
2022/05/07 19:55:36;;;;;;;6.57;2.90;;;14.70;6.70;;;;;;6138795;23;20022;-91
2022/05/07 20:04:11;;;;;;;9.05;3.88;;;15.30;1.00;;;;;;6215906;23;20059;-92
2022/05/07 20:14:45;;;;;;;11.98;3.47;;;14.30;1.00;;;;;;6158685;23;20044;-92
2022/05/07 20:17:40;;;;;;;11.60;3.50;;;14.10;1.00;;;;;;6224012;23;20090;-91
2022/05/07 20:56:59;;;;;;;13.93;3.22;;;13.70;5.20;;;;;;6212177;22;20055;-91
2022/05/07 20:59:32;;;;;;;14.40;2.63;;;13.90;1.00;;;;;;6218920;23;20016;-92
2022/05/07 21:02:10;;;;;;;14.50;3.55;;;14.00;11.90;;;;;;6240612;22;20020;-92
2022/05/07 21:04:38;;;;;;;12.25;4.07;;;14.10;7.40;;;;;;6222183;22;20019;-91
2022/05/07 21:07:10;;;;;;;9.00;2.97;;;14.20;1.00;;;;;;6225726;22;20016;-91
2022/05/07 21:09:43;;;;;;;16.70;3.78;;;14.30;1.00;;;;;;6225085;22;20019;-91
2022/05/07 21:12:15;;;;;;;19.33;3.92;;;13.90;1.60;;;;;;6224994;22;20038;-92
2022/05/07 21:14:57;;;;;;;14.98;2.60;;;13.90;2.30;;;;;;6249626;22;20508;-92
2022/05/07 21:17:26;;;;;;;13.63;3.30;;;13.90;1.00;;;;;;6201323;22;20451;-93
2022/05/07 21:20:00;;;;;;;15.35;2.78;;;13.80;1.00;;;;;;6249578;22;20028;-92
2022/05/07 21:23:07;;;;;;;11.48;2.50;;;13.50;1.00;;;;;;6276869;22;20026;-92
2022/05/07 21:32:10;;;;;;;17.88;3.53;;;13.40;6.40;;;;;;6253073;22;20016;-92
2022/05/07 21:34:56;;;;;;;12.25;2.63;;;13.40;3.80;;;;;;6234512;22;20450;-92
2022/05/07 21:37:42;;;;;;;23.73;2.60;;;13.50;4.60;;;;;;6232201;22;20020;-92
2022/05/07 21:40:19;;;;;;;18.17;4.13;;;13.30;1.00;;;;;;6249650;22;20778;-92
2022/05/07 21:42:57;;;;;;;13.77;2.75;;;12.80;1.00;;;;;;6249324;22;20031;-92
2022/05/07 21:45:33;;;;;;;11.82;2.38;;;13.10;18.30;;;;;;6250726;22;20019;-93
2022/05/07 21:48:06;;;;;;;19.45;2.40;;;13.30;8.00;;;;;;6225332;22;20094;-92
2022/05/07 21:53:17;;;;;;;19.88;2.17;;;13.20;1.00;;;;;;6281584;22;20012;-92
2022/05/07 21:55:56;;;;;;;12.38;2.45;;;13.20;1.00;;;;;;6227455;22;20070;-92
2022/05/07 21:58:39;;;;;;;13.25;2.75;;;13.00;6.50;;;;;;6251561;22;20455;-93
2022/05/07 22:01:17;;;;;;;10.98;2.22;;;13.20;12.60;;;;;;6252484;22;20023;-92
2022/05/07 22:03:51;;;;;;;18.85;3.38;;;13.40;6.80;;;;;;6227919;22;20024;-93
2022/05/07 22:06:27;;;;;;;10.52;2.45;;;13.10;1.00;;;;;;6227474;22;20103;-92
2022/05/07 22:08:59;;;;;;;10.65;3.33;;;12.80;1.00;;;;;;6278584;22;20012;-93
2022/05/07 22:11:27;;;;;;;12.77;2.10;;;12.90;15.30;;;;;;6278977;22;20450;-93
2022/05/07 22:13:59;;;;;;;17.80;2.50;;;13.10;8.00;;;;;;6251482;22;20024;-93
2022/05/07 22:16:41;;;;;;;8.45;2.60;;;13.10;4.50;;;;;;6230432;22;20015;-92
2022/05/07 22:19:17;;;;;;;18.95;3.22;;;13.20;1.50;;;;;;6255064;22;20016;-91
2022/05/07 22:21:48;;;;;;;10.32;2.45;;;13.00;2.10;;;;;;6251587;22;20027;-91
2022/05/07 22:24:37;;;;;;;8.45;2.28;;;13.10;6.60;;;;;;6227517;22;20015;-92
2022/05/07 22:27:24;;;;;;;11.13;2.65;;;13.30;3.30;;;;;;6251281;22;20423;-93
2022/05/07 22:29:58;;;;;;;6.65;1.88;;;13.10;1.00;;;;;;6226527;22;20494;-93
2022/05/07 22:32:48;;;;;;;14.88;2.83;;;13.00;1.00;;;;;;6229675;22;20026;-92
2022/05/07 22:35:29;;;;;;;13.25;2.33;;;12.90;1.90;;;;;;6228175;22;20020;-92
2022/05/07 22:38:00;;;;;;;12.05;2.33;;;12.80;3.40;;;;;;6226266;22;20020;-92
2022/05/07 22:40:31;;;;;;;11.23;2.97;;;12.90;1.00;;;;;;6277743;22;20016;-92
2022/05/07 22:42:59;;;;;;;8.88;2.17;;;12.70;1.00;;;;;;6278223;22;20026;-91
2022/05/07 22:45:30;;;;;;;9.23;1.80;;;12.70;4.30;;;;;;6250346;22;20020;-91
2022/05/07 22:47:58;;;;;;;13.27;2.28;;;12.70;3.20;;;;;;6278184;22;20012;-91
2022/05/07 22:50:29;;;;;;;5.40;1.67;;;12.80;1.30;;;;;;6226221;22;20016;-91
2022/05/07 22:52:56;;;;;;;16.75;2.72;;;12.90;3.20;;;;;;6176089;22;20047;-92
2022/05/07 22:55:23;;;;;;;10.60;2.50;;;12.90;1.00;;;;;;6251624;22;20555;-91
2022/05/07 22:57:53;;;;;;;11.13;2.65;;;12.90;1.00;;;;;;6250949;22;20031;-91
2022/05/07 23:00:23;;;;;;;11.90;2.58;;;12.70;2.20;;;;;;6250290;22;20019;-92
2022/05/07 23:02:52;;;;;;;8.68;2.08;;;12.80;1.00;;;;;;6225460;22;20443;-91
2022/05/07 23:05:22;;;;;;;10.77;2.10;;;12.70;1.00;;;;;;6250086;22;20019;-92
2022/05/07 23:07:52;;;;;;;9.65;1.52;;;12.90;1.00;;;;;;6224577;22;20020;-91
2022/05/07 23:10:19;;;;;;;10.68;1.83;;;12.90;1.00;;;;;;6250612;22;20012;-92
2022/05/07 23:12:48;;;;;;;10.13;1.83;;;12.70;1.00;;;;;;6225569;22;20020;-91
2022/05/07 23:15:15;;;;;;;18.15;3.13;;;12.50;1.00;;;;;;6225473;22;20358;-91
2022/05/07 23:17:46;;;;;;;6.15;1.80;;;12.60;1.00;;;;;;6250274;22;20024;-91
2022/05/07 23:20:16;;;;;;;;;;;12.70;1.00;;;;;;6227070;22;20028;-92
